createdAt,value
2022-08-26T00:03:45.090Z,34.10
2022-08-26T00:07:33.057Z,28.90
2022-08-26T00:11:26.784Z,32.70
2022-08-26T00:15:14.613Z,29.30
2022-08-26T00:19:02.327Z,37.70
2022-08-26T00:22:50.320Z,32.50
2022-08-26T00:26:28.573Z,27.80
2022-08-26T00:30:17.594Z,34.20
2022-08-26T00:34:11.266Z,28.70
2022-08-26T00:37:52.420Z,37.60
2022-08-26T00:41:33.969Z,35.40
2022-08-26T00:45:14.703Z,27.90
2022-08-26T00:49:01.393Z,37.90
2022-08-26T00:52:49.970Z,31.60
2022-08-26T00:56:32.003Z,36.90
2022-08-26T01:00:12.903Z,38.00
2022-08-26T01:03:59.040Z,37.90
2022-08-26T01:07:48.180Z,42.30
2022-08-26T01:11:30.380Z,29.90
2022-08-26T01:15:18.087Z,36.80
2022-08-26T01:19:04.877Z,35.40
2022-08-26T01:23:01.612Z,39.50
2022-08-26T01:26:51.142Z,32.20
2022-08-26T01:30:39.244Z,35.40
2022-08-26T01:34:33.339Z,40.20
2022-08-26T01:38:21.154Z,36.90
2022-08-26T01:42:05.416Z,36.70
2022-08-26T01:45:51.053Z,39.80
2022-08-26T01:49:38.708Z,37.80
2022-08-26T01:53:17.648Z,26.30
2022-08-26T01:57:04.666Z,29.10
2022-08-26T02:00:51.514Z,35.30
2022-08-26T02:04:48.592Z,32.60
2022-08-26T02:08:37.651Z,33.00
2022-08-26T02:12:24.352Z,26.60
2022-08-26T02:16:06.598Z,44.40
2022-08-26T02:19:43.389Z,35.40
2022-08-26T02:23:31.421Z,32.20
2022-08-26T02:27:12.559Z,39.90
2022-08-26T02:31:00.671Z,28.60
2022-08-26T02:34:53.247Z,28.30
2022-08-26T02:38:40.979Z,36.30
2022-08-26T02:42:23.944Z,33.50
2022-08-26T02:46:12.974Z,29.80
2022-08-26T02:50:09.511Z,37.40
2022-08-26T02:53:50.324Z,28.80
2022-08-26T02:57:39.238Z,36.90
2022-08-26T03:01:20.206Z,32.00
2022-08-26T03:05:09.688Z,30.70
2022-08-26T03:08:57.394Z,35.10
2022-08-26T03:12:48.093Z,37.40
2022-08-26T03:16:36.167Z,31.50
2022-08-26T03:20:24.704Z,31.20
2022-08-26T03:24:11.792Z,34.10
2022-08-26T03:27:59.654Z,28.00
2022-08-26T03:31:47.046Z,36.90
2022-08-26T03:35:33.751Z,27.50
2022-08-26T03:39:21.663Z,35.20
2022-08-26T03:43:02.206Z,38.40
2022-08-26T03:46:50.210Z,45.60
2022-08-26T03:50:38.170Z,28.30
2022-08-26T03:54:24.649Z,36.60
2022-08-26T03:58:04.918Z,40.30
2022-08-26T04:01:53.535Z,36.80
2022-08-26T04:05:35.111Z,41.00
2022-08-26T04:09:22.915Z,37.70
2022-08-26T04:13:12.654Z,37.50
2022-08-26T04:16:55.347Z,28.60
2022-08-26T04:20:34.498Z,31.90
2022-08-26T04:24:15.517Z,32.60
2022-08-26T04:28:04.959Z,28.90
2022-08-26T04:31:55.548Z,30.70
2022-08-26T04:35:44.405Z,28.00
2022-08-26T04:39:34.575Z,33.20
2022-08-26T04:43:21.585Z,28.80
2022-08-26T04:47:09.526Z,33.20
2022-08-26T04:50:59.172Z,31.10
2022-08-26T04:54:39.516Z,36.20
2022-08-26T04:58:30.230Z,31.00
2022-08-26T05:02:18.322Z,35.30
2022-08-26T05:06:06.794Z,38.60
2022-08-26T05:09:47.654Z,54.00
2022-08-26T05:13:27.836Z,43.80
2022-08-26T05:16:58.144Z,31.10
2022-08-26T05:20:45.835Z,35.20
2022-08-26T05:24:37.311Z,28.40
2022-08-26T05:28:25.297Z,33.10
2022-08-26T05:32:12.003Z,33.40
2022-08-26T05:35:52.473Z,32.10
2022-08-26T05:39:41.266Z,29.00
2022-08-26T05:43:31.316Z,36.70
2022-08-26T05:47:12.248Z,22.30
2022-08-26T05:51:00.098Z,26.30
2022-08-26T05:54:40.602Z,29.10
2022-08-26T05:58:28.372Z,27.20
2022-08-26T06:02:16.148Z,29.30
2022-08-26T06:06:04.422Z,23.60
2022-08-26T06:10:05.429Z,31.40
2022-08-26T06:14:03.856Z,18.40
2022-08-26T06:17:44.333Z,26.20
2022-08-26T06:21:31.832Z,34.50
2022-08-26T06:25:18.580Z,26.20
2022-08-26T06:28:57.421Z,16.90
2022-08-26T06:32:45.235Z,34.30
2022-08-26T06:36:32.977Z,32.50
2022-08-26T06:40:19.308Z,22.00
2022-08-26T06:44:05.569Z,26.60
2022-08-26T06:47:54.390Z,21.40
2022-08-26T06:51:42.360Z,25.80
2022-08-26T06:55:30.146Z,23.50
2022-08-26T06:59:17.964Z,23.70
2022-08-26T07:03:06.307Z,25.40
2022-08-26T07:06:55.535Z,25.30
2022-08-26T07:10:43.577Z,28.80
2022-08-26T07:14:32.186Z,22.20
2022-08-26T07:18:20.156Z,20.00
2022-08-26T07:22:10.985Z,20.60
2022-08-26T07:25:58.732Z,21.30
2022-08-26T07:29:44.449Z,19.70
2022-08-26T07:33:26.650Z,19.10
2022-08-26T07:37:15.038Z,16.80
2022-08-26T07:41:06.047Z,17.20
2022-08-26T07:44:49.163Z,14.60
2022-08-26T07:48:38.175Z,17.70
2022-08-26T07:52:27.587Z,13.80
2022-08-26T07:56:16.327Z,19.00
2022-08-26T08:00:04.281Z,17.20
2022-08-26T08:03:52.504Z,16.70
2022-08-26T08:07:44.621Z,18.80
2022-08-26T08:11:34.244Z,16.70
2022-08-26T08:15:23.574Z,11.60
2022-08-26T08:19:12.069Z,13.20
2022-08-26T08:22:53.535Z,19.50
2022-08-26T08:26:41.012Z,19.00
2022-08-26T08:30:29.370Z,14.80
2022-08-26T08:34:18.119Z,22.90
2022-08-26T08:38:00.555Z,29.50
2022-08-26T08:41:43.213Z,17.50
2022-08-26T08:45:35.948Z,15.50
2022-08-26T08:49:28.063Z,12.00
2022-08-26T08:53:25.829Z,16.90
2022-08-26T08:57:13.390Z,15.60
2022-08-26T09:01:10.613Z,15.60
2022-08-26T09:05:15.122Z,9.90
2022-08-26T09:09:03.566Z,20.40
2022-08-26T09:12:50.631Z,14.20
2022-08-26T09:16:48.793Z,13.60
2022-08-26T09:20:49.350Z,18.40
2022-08-26T09:24:41.809Z,12.60
2022-08-26T09:28:35.952Z,13.80
2022-08-26T09:32:30.402Z,21.20
2022-08-26T09:36:27.151Z,11.30
2022-08-26T09:40:35.030Z,10.60
2022-08-26T09:44:23.121Z,13.70
2022-08-26T09:48:13.712Z,11.10
2022-08-26T09:52:20.897Z,27.40
2022-08-26T09:56:04.366Z,12.70
2022-08-26T09:59:54.557Z,12.50
2022-08-26T10:03:42.671Z,19.50
2022-08-26T10:07:36.254Z,19.80
2022-08-26T10:11:25.233Z,14.10
2022-08-26T10:15:12.820Z,19.30
2022-08-26T10:19:00.160Z,12.40
2022-08-26T10:23:00.646Z,19.80
2022-08-26T10:27:06.659Z,25.60
2022-08-26T10:30:58.338Z,11.20
2022-08-26T10:34:46.502Z,12.40
2022-08-26T10:38:40.745Z,18.10
2022-08-26T10:42:32.323Z,15.60
2022-08-26T10:46:15.460Z,17.20
2022-08-26T10:49:55.584Z,11.40
2022-08-26T10:54:00.139Z,16.90
2022-08-26T10:57:53.570Z,20.60
2022-08-26T11:01:55.875Z,22.70
2022-08-26T11:05:46.548Z,15.40
2022-08-26T11:09:34.078Z,15.80
2022-08-26T11:13:26.197Z,14.60
2022-08-26T11:17:14.036Z,12.40
2022-08-26T11:21:10.242Z,15.10
2022-08-26T11:24:56.104Z,8.90
2022-08-26T11:28:50.376Z,20.70
2022-08-26T11:32:39.201Z,18.30
2022-08-26T11:36:28.173Z,18.70
2022-08-26T11:40:16.223Z,13.30
2022-08-26T11:44:06.927Z,13.80
2022-08-26T11:47:54.692Z,15.10
2022-08-26T11:51:52.125Z,14.70
2022-08-26T11:55:39.844Z,19.50
2022-08-26T11:59:27.891Z,12.70
2022-08-26T12:03:18.597Z,12.30
2022-08-26T12:07:24.105Z,22.90
2022-08-26T12:11:12.705Z,18.00
2022-08-26T12:15:01.529Z,11.70
2022-08-26T12:18:59.869Z,17.30
2022-08-26T12:22:48.412Z,15.90
2022-08-26T12:26:41.943Z,12.10
2022-08-26T12:30:28.811Z,14.70
2022-08-26T12:34:17.830Z,12.20
2022-08-26T12:38:06.211Z,13.20
2022-08-26T12:42:00.346Z,17.00
2022-08-26T12:46:14.204Z,11.60
2022-08-26T12:50:02.187Z,8.90
2022-08-26T12:53:50.448Z,11.00
2022-08-26T12:57:38.366Z,11.50
2022-08-26T13:01:37.926Z,10.40
2022-08-26T13:05:38.043Z,11.30
2022-08-26T13:09:28.223Z,15.40
2022-08-26T13:13:30.932Z,7.00
2022-08-26T13:17:20.246Z,15.80
2022-08-26T13:21:08.151Z,12.70
2022-08-26T13:24:55.955Z,15.10
2022-08-26T13:28:43.680Z,7.50
2022-08-26T13:32:31.991Z,9.20
2022-08-26T13:36:12.938Z,21.40
2022-08-26T13:40:00.325Z,11.60
2022-08-26T13:43:48.982Z,14.20
2022-08-26T14:05:47.392Z,16.50
2022-08-26T14:09:38.571Z,12.10
2022-08-26T14:13:27.820Z,7.80
2022-08-26T14:17:17.681Z,21.90
2022-08-26T14:21:07.435Z,9.40
2022-08-26T14:24:56.861Z,15.20
2022-08-26T14:28:46.322Z,11.00
2022-08-26T14:32:36.511Z,19.70
2022-08-26T14:36:24.577Z,10.20
2022-08-26T14:40:13.184Z,18.30
2022-08-26T14:44:01.821Z,30.70
2022-08-26T14:47:50.257Z,52.80
2022-08-26T14:51:39.250Z,12.70
2022-08-26T14:55:30.281Z,27.80
2022-08-26T14:59:20.407Z,11.20
2022-08-26T15:18:18.319Z,15.90
2022-08-26T15:22:07.269Z,11.50
2022-08-26T15:25:54.899Z,27.20
2022-08-26T15:29:47.045Z,13.70
2022-08-26T15:33:35.481Z,13.70
2022-08-26T15:37:23.944Z,16.40
2022-08-26T15:41:12.511Z,13.50
2022-08-26T15:44:54.433Z,12.10
2022-08-26T15:48:42.905Z,10.80
2022-08-26T15:52:31.389Z,10.10
2022-08-26T15:56:19.783Z,15.00
2022-08-26T16:00:01.008Z,22.00
2022-08-26T16:03:49.491Z,16.70
2022-08-26T16:07:37.950Z,15.20
2022-08-26T16:11:20.232Z,11.80
2022-08-26T16:14:57.688Z,16.10
2022-08-26T16:18:14.047Z,18.20
2022-08-26T16:21:32.901Z,13.60
2022-08-26T16:25:14.272Z,23.10
2022-08-26T16:28:51.883Z,14.80
2022-08-26T16:32:31.317Z,26.50
2022-08-26T16:36:19.936Z,22.00
2022-08-26T16:39:40.194Z,14.50
2022-08-26T16:43:05.308Z,25.20
2022-08-26T16:46:56.031Z,16.40
2022-08-26T16:50:47.813Z,18.60
2022-08-26T16:54:16.497Z,13.90
2022-08-26T16:57:42.009Z,12.10
2022-08-26T17:01:31.744Z,14.40
2022-08-26T17:05:00.521Z,47.70
2022-08-26T17:08:24.245Z,36.50
2022-08-26T17:12:16.934Z,39.30
2022-08-26T17:15:58.472Z,36.20
2022-08-26T17:19:18.926Z,23.00
2022-08-26T17:23:01.750Z,46.60
2022-08-26T17:26:34.120Z,41.10
2022-08-26T17:30:18.808Z,19.90
2022-08-26T17:34:08.193Z,31.40
2022-08-26T17:37:32.856Z,19.60
2022-08-26T17:41:21.388Z,15.90
2022-08-26T17:45:09.833Z,20.30
2022-08-26T17:48:49.569Z,17.30
2022-08-26T17:52:39.698Z,21.30
2022-08-26T17:56:27.481Z,27.60
2022-08-26T18:00:06.997Z,16.30
2022-08-26T18:03:36.618Z,24.00
2022-08-26T18:07:26.125Z,21.60
2022-08-26T18:11:15.989Z,14.10
2022-08-26T18:14:36.093Z,21.90
2022-08-26T18:18:16.721Z,16.00
2022-08-26T18:21:55.324Z,17.30
2022-08-26T18:25:38.687Z,17.80
2022-08-26T18:29:29.433Z,22.70
2022-08-26T18:33:19.080Z,31.00
2022-08-26T18:40:52.185Z,19.60
2022-08-26T18:44:41.443Z,25.70
2022-08-26T18:48:30.538Z,20.70
2022-08-26T18:52:21.958Z,59.00
2022-08-26T18:56:14.316Z,33.40
2022-08-26T19:00:05.497Z,28.40
2022-08-26T19:03:53.571Z,23.80
2022-08-26T19:07:39.397Z,22.00
2022-08-26T19:11:31.578Z,17.90
2022-08-26T19:15:22.181Z,18.80
2022-08-26T19:18:39.583Z,13.50
2022-08-26T19:22:29.570Z,20.00
2022-08-26T19:26:25.486Z,16.50
2022-08-26T19:29:36.126Z,19.80
2022-08-26T19:33:16.802Z,13.70
2022-08-26T19:37:08.859Z,17.60
2022-08-26T19:40:58.652Z,33.10
2022-08-26T19:44:31.825Z,22.40
2022-08-26T19:48:16.632Z,17.30
2022-08-26T19:51:59.821Z,33.90
2022-08-26T19:55:50.819Z,25.30
2022-08-26T19:59:34.774Z,21.80
2022-08-26T20:03:21.552Z,25.90
2022-08-26T20:06:57.567Z,15.30
2022-08-26T20:10:50.117Z,22.00
2022-08-26T20:14:34.175Z,27.20
2022-08-26T20:18:12.001Z,26.00
2022-08-26T20:22:01.357Z,23.20
2022-08-26T20:25:44.237Z,31.30
2022-08-26T20:29:34.787Z,25.10
2022-08-26T20:33:27.467Z,21.30
2022-08-26T20:37:18.460Z,17.50
2022-08-26T20:41:08.018Z,16.50
2022-08-26T20:45:00.376Z,18.50
2022-08-26T20:48:51.388Z,36.50
2022-08-26T20:52:33.031Z,22.60
2022-08-26T20:56:16.583Z,14.80
2022-08-26T21:00:06.706Z,16.40
2022-08-26T21:03:48.460Z,25.00
2022-08-26T21:07:37.774Z,15.70
2022-08-26T21:11:28.183Z,13.50
2022-08-26T21:15:18.448Z,20.00
2022-08-26T21:19:07.143Z,21.90
2022-08-26T21:23:00.970Z,17.70
2022-08-26T21:26:51.414Z,25.30
2022-08-26T21:30:45.009Z,17.80
2022-08-26T21:34:36.980Z,21.50
2022-08-26T21:38:11.224Z,13.20
2022-08-26T21:41:47.020Z,23.30
2022-08-26T21:45:38.477Z,17.20
2022-08-26T21:49:15.728Z,31.30
2022-08-26T21:52:56.904Z,26.00
2022-08-26T21:56:47.965Z,18.30
2022-08-26T22:00:30.096Z,17.00
2022-08-26T22:04:19.852Z,19.40
2022-08-26T22:07:54.210Z,12.60
2022-08-26T22:11:34.034Z,20.50
2022-08-26T22:15:23.326Z,22.10
2022-08-26T22:19:02.536Z,18.90
2022-08-26T22:22:44.459Z,18.10
2022-08-26T22:26:04.459Z,19.70
2022-08-26T22:29:54.815Z,18.40
2022-08-26T22:33:42.445Z,17.40
2022-08-26T22:37:30.172Z,20.20
2022-08-26T22:41:00.561Z,11.70
2022-08-26T22:44:36.384Z,18.10
2022-08-26T22:48:16.407Z,17.30
2022-08-26T22:52:04.094Z,14.30
2022-08-26T22:55:44.436Z,12.40
2022-08-26T22:59:32.117Z,14.90
2022-08-26T23:03:02.395Z,16.40
2022-08-26T23:06:50.140Z,19.60
2022-08-26T23:10:38.029Z,17.60
2022-08-26T23:14:26.226Z,26.80
2022-08-26T23:17:58.512Z,25.10
2022-08-26T23:21:39.364Z,26.50
2022-08-26T23:25:27.572Z,19.60
2022-08-26T23:28:58.676Z,23.80
2022-08-26T23:32:46.525Z,28.80
2022-08-26T23:36:35.110Z,28.90
2022-08-26T23:40:23.235Z,16.90
2022-08-26T23:44:12.170Z,20.00
2022-08-26T23:47:59.921Z,22.00
2022-08-26T23:51:46.125Z,23.90
2022-08-26T23:55:28.498Z,19.70
2022-08-26T23:59:16.106Z,28.80
